Latest Weather Observations for Batchelor

IDD60901

Issued at 9:11 am CST Tuesday 17 October 2017 (issued every 10 minutes, with the page automatically refreshed every 10 minutes)

About weather observations | Map of Darwin area stations | Latest observations for Darwin area | Other Formats
Station Details ID: 014272 Name: BATCHELOR AIRPORT Lat: -13.05 Lon: 131.03 Height: 104.0 m
Data from the previous 72 hours. | See also: Recent months at Batchelor
Date/Time
CST
Temp
°C
App
Temp
°C
Dew
Point
°C
Rel
Hum
%
Delta-T
°C
Wind Press
QNH
hPa
Press
MSL
hPa
Rain since
9am
mm
Dir  Spd
km/h
Gust
km/h
Spd
kts
Gust
kts
17/09:00am 30.0 34.4 24.4 72 3.9 W 9 17 5 9 - - 4.8
17/08:30am 29.3 33.9 24.8 77 3.2 W 9 17 5 9 - - 4.8
17/08:00am 28.3 33.7 25.1 83 2.3 W 6 7 3 4 - - 4.8
17/07:30am 27.0 33.5 25.0 89 1.4 CALM 0 0 0 0 - - 4.8
17/07:00am 26.0 32.1 25.1 95 0.6 N 2 2 1 1 - - 4.8
17/06:30am 25.8 32.3 25.1 96 0.5 CALM 0 0 0 0 - - 4.8
17/06:00am 25.7 32.0 24.7 94 0.7 CALM 0 0 0 0 - - 4.8
17/05:30am 25.7 31.3 24.8 95 0.6 N 4 6 2 3 - - 4.8
17/05:00am 25.8 32.1 24.8 94 0.7 CALM 0 0 0 0 - - 4.8
17/04:30am 25.9 31.8 24.7 93 0.8 N 2 4 1 2 - - 4.8
17/04:00am 25.9 31.9 24.3 91 1.1 CALM 0 0 0 0 - - 4.8
17/03:30am 26.3 31.8 24.7 91 1.1 N 4 7 2 4 - - 4.8
17/03:00am 26.3 31.9 24.9 92 1.0 NNE 4 9 2 5 - - 4.8
17/02:30am 25.9 30.9 24.5 92 1.0 W 6 9 3 5 1006.1 1005.3 4.8
17/02:00am 26.1 30.7 24.1 89 1.4 W 7 9 4 5 1006.4 1005.6 4.8
17/01:30am 26.4 31.2 24.4 89 1.4 WNW 7 9 4 5 1006.4 1005.6 4.8
17/01:00am 25.9 30.5 23.8 88 1.4 NW 6 7 3 4 1006.7 1005.9 4.8
17/12:30am 26.0 30.4 23.5 86 1.7 W 6 9 3 5 1006.8 1006.0 4.8
17/12:00am 25.8 30.0 23.1 85 1.8 W 6 7 3 4 1006.8 1006.0 4.8
 
Date/Time
CST
Temp
°C
App
Temp
°C
Dew
Point
°C
Rel
Hum
%
Delta-T
°C
Wind Press
QNH
hPa
Press
MSL
hPa
Rain since
9am
mm
Dir  Spd
km/h
Gust
km/h
Spd
kts
Gust
kts
16/11:30pm 25.6 29.8 22.5 83 2.1 WNW 4 6 2 3 1007.0 1006.2 4.8
16/11:00pm 25.4 28.8 21.7 80 2.5 W 6 7 3 4 1007.0 1006.2 4.8
16/10:30pm 25.6 29.1 21.9 80 2.5 W 6 9 3 5 1007.2 1006.4 4.8
16/10:00pm 25.5 29.0 21.8 80 2.5 W 6 9 3 5 1007.0 1006.2 4.8
16/09:30pm 25.2 28.5 21.5 80 2.5 W 6 15 3 8 1006.6 1005.8 4.8
16/09:00pm 24.8 27.4 20.1 75 3.1 W 6 9 3 5 1006.5 1005.7 4.8
16/08:30pm 24.1 26.6 20.2 79 2.5 W 7 13 4 7 1006.2 1005.4 4.8
16/08:00pm 23.8 25.8 19.9 79 2.5 W 9 13 5 7 1006.0 1005.2 4.8
16/07:30pm 24.3 26.8 19.8 76 2.9 W 6 11 3 6 1005.6 1004.8 4.8
16/07:00pm 23.4 23.6 19.3 78 2.6 WNW 17 28 9 15 1005.2 1004.4 4.6
16/06:30pm 22.5 20.7 19.5 83 1.9 W 28 43 15 23 1006.0 1005.2 4.2
16/06:00pm 27.3 26.0 17.2 54 6.4 SSE 20 37 11 20 1005.6 1004.8 0.0
16/05:30pm 32.0 33.0 20.3 50 7.8 NNW 15 20 8 11 1004.7 1003.9 0.0
16/05:00pm 31.3 31.2 19.9 50 7.5 NW 20 33 11 18 1004.1 1003.3 0.0
16/04:30pm 32.5 31.9 19.7 46 8.5 NNW 22 32 12 17 1004.2 1003.4 0.0
16/04:00pm 33.2 32.2 19.7 45 9.0 NNW 24 35 13 19 1004.0 1003.2 0.0
16/03:30pm 35.9 37.8 17.6 34 11.9 NNE 4 4 2 2 1003.5 1002.7 0.0
16/03:00pm 36.9 38.1 15.9 28 13.4 WSW 4 4 2 2 1003.9 1003.1 0.0
16/02:30pm 36.6 37.7 16.7 30 12.8 WSW 6 11 3 6 1004.2 1003.4 0.0
16/02:00pm 36.4 38.8 18.0 33 12.0 W 2 2 1 1 1004.8 1004.0 0.0
16/01:30pm 36.6 37.5 16.7 30 12.8 W 7 13 4 7 1005.3 1004.5 0.0
16/01:00pm 36.9 38.6 18.4 33 12.2 SW 7 20 4 11 1005.9 1005.1 0.0
16/12:30pm 36.3 38.0 19.3 37 11.3 WSW 9 15 5 8 1006.4 1005.6 0.0
16/12:00pm 35.2 37.0 19.6 40 10.4 WSW 9 20 5 11 1007.0 1006.2 0.0
16/11:30am 34.4 36.6 21.1 45 9.0 SW 11 24 6 13 1007.7 1006.9 0.0
16/11:00am 33.2 36.4 21.7 51 7.8 SW 7 13 4 7 1008.3 1007.5 0.0
16/10:30am 32.9 36.3 22.0 52 7.5 SW 7 13 4 7 1008.7 1007.9 0.0
16/10:00am 31.6 35.7 22.9 60 6.0 WSW 6 11 3 6 1009.2 1008.4 0.0
16/09:30am 30.8 35.4 24.2 68 4.6 WSW 7 11 4 6 1009.5 1008.8 0.0
16/09:00am 29.8 34.6 24.2 72 3.9 SW 6 11 3 6 1009.6 1008.9 0.6
16/08:30am 28.9 34.3 24.5 77 3.1 NW 4 9 2 5 1009.6 1008.9 0.6
16/08:00am 27.3 32.4 24.0 82 2.3 NNW 4 6 2 3 1009.6 1008.9 0.6
16/07:30am 26.4 31.9 24.6 90 1.3 ENE 4 6 2 3 1009.4 1008.6 0.6
16/07:00am 25.6 31.8 24.6 94 0.7 CALM 0 0 0 0 1009.1 1008.3 0.6
16/06:30am 25.4 31.4 24.2 93 0.8 CALM 0 0 0 0 1008.9 1008.1 0.6
16/06:00am 25.3 31.2 24.1 93 0.8 CALM 0 2 0 1 1009.0 1008.2 0.6
16/05:30am 25.2 30.3 24.0 93 0.8 ENE 4 9 2 5 1008.7 1007.9 0.6
16/05:00am 25.5 31.0 24.1 92 1.0 N 2 4 1 2 1008.3 1007.5 0.6
16/04:30am 25.4 29.6 23.5 89 1.3 N 7 9 4 5 1008.0 1007.2 0.4
16/04:00am 25.7 29.8 23.2 86 1.7 NNW 7 11 4 6 1007.8 1007.0 0.4
16/03:30am 25.8 29.7 22.9 84 2.0 NW 7 11 4 6 1007.5 1006.7 0.0
16/03:00am 26.1 29.6 22.2 79 2.6 SSW 7 9 4 5 1008.0 1007.2 0.0
16/02:30am 25.7 29.2 21.8 79 2.6 SW 6 9 3 5 1007.8 1007.0 0.0
16/02:00am 25.9 28.9 21.3 76 3.1 WSW 7 11 4 6 1007.3 1006.5 0.0
16/01:30am 25.7 28.8 21.4 77 2.9 WNW 7 11 4 6 1007.6 1006.8 0.0
16/01:00am 25.4 29.3 21.1 77 2.8 W 2 6 1 3 1008.2 1007.4 0.0
16/12:30am 25.5 28.7 21.2 77 2.9 W 6 11 3 6 1008.4 1007.6 0.0
16/12:00am 25.6 28.4 20.8 75 3.2 W 7 11 4 6 1008.5 1007.7 0.0
 
Date/Time
CST
Temp
°C
App
Temp
°C
Dew
Point
°C
Rel
Hum
%
Delta-T
°C
Wind Press
QNH
hPa
Press
MSL
hPa
Rain since
9am
mm
Dir  Spd
km/h
Gust
km/h
Spd
kts
Gust
kts
15/11:30pm 25.8 28.5 20.6 73 3.4 NW 7 9 4 5 1008.7 1007.9 0.0
15/11:00pm 26.0 28.7 20.6 72 3.6 NNW 7 9 4 5 1008.7 1007.9 0.0
15/10:30pm 26.3 28.1 20.4 70 3.9 N 11 19 6 10 1008.9 1008.1 0.0
15/10:00pm 26.3 27.9 20.8 71 3.6 NE 13 22 7 12 1009.5 1008.8 0.0
15/09:39pm 27.2 27.2 21.0 69 4.1 ENE 22 41 12 22 1009.7 1009.0 0.0
15/09:30pm 29.0 32.3 22.5 68 4.4 N 9 17 5 9 1008.9 1008.1 0.0
15/09:00pm 29.1 32.1 22.6 68 4.4 NW 11 17 6 9 1007.6 1006.8 0.0
15/08:30pm 29.4 32.4 22.6 67 4.7 W 11 20 6 11 1007.7 1006.9 0.0
15/08:00pm 29.7 32.4 22.2 64 5.1 W 11 19 6 10 1007.2 1006.4 0.0
15/07:30pm 30.1 32.6 22.5 63 5.2 W 13 22 7 12 1006.3 1005.5 0.0
15/07:00pm 31.0 34.1 22.9 62 5.6 WNW 11 17 6 9 1006.1 1005.3 0.0
15/06:30pm 31.7 33.3 21.5 54 6.9 NW 15 22 8 12 1005.0 1004.2 0.0
15/06:00pm 33.1 35.2 20.9 48 8.2 NW 11 15 6 8 1004.9 1004.1 0.0
15/05:30pm 33.6 35.4 21.1 48 8.5 NW 13 17 7 9 1004.5 1003.7 0.0
15/05:00pm 34.4 36.4 19.2 40 10.0 NW 7 13 4 7 1004.7 1003.9 0.0
15/04:30pm 34.8 37.7 20.7 43 9.5 NW 6 11 3 6 1004.6 1003.8 0.0
15/04:00pm 35.0 37.2 20.5 42 9.8 WSW 9 19 5 10 1004.8 1004.0 0.0
15/03:30pm 34.4 36.7 20.7 44 9.3 N 9 17 5 9 1005.3 1004.5 0.0
15/03:00pm 33.8 37.0 21.6 49 8.3 W 7 13 4 7 1005.7 1004.9 0.0
15/02:30pm 33.7 36.8 21.5 49 8.3 WSW 7 11 4 6 1006.0 1005.2 0.0
15/02:00pm 32.8 36.2 21.6 51 7.6 SW 6 9 3 5 1006.4 1005.6 0.0
15/01:30pm 31.7 34.8 22.1 56 6.6 S 9 15 5 8 1006.8 1006.0 0.0
15/01:00pm 31.5 34.5 21.9 56 6.5 S 9 17 5 9 1007.3 1006.5 0.0
15/12:30pm 32.3 34.9 21.2 52 7.5 SSE 9 13 5 7 1007.7 1006.9 0.0
15/12:00pm 32.6 35.9 21.8 53 7.4 SSE 7 11 4 6 1008.2 1007.4 0.0
15/11:30am 32.9 36.6 21.4 50 7.8 SW 4 9 2 5 1008.5 1007.7 0.0
15/11:00am 32.1 35.2 21.0 52 7.5 W 6 9 3 5 1009.0 1008.2 0.0
15/10:30am 31.5 34.8 20.8 53 7.2 WSW 4 7 2 4 1009.4 1008.6 0.0
15/10:00am 30.1 33.4 21.5 60 5.8 NNW 6 7 3 4 1009.6 1008.9 0.0
15/09:30am 28.7 33.9 22.9 71 4.0 CALM 0 4 0 2 1009.8 1009.1 0.0
15/09:00am 27.7 32.5 23.5 78 2.9 SE 4 6 2 3 1009.7 1009.0 6.4
15/08:30am 26.1 30.8 23.4 85 1.9 ENE 4 6 2 3 1009.5 1008.8 6.4
15/08:00am 25.9 31.2 23.0 84 2.0 CALM 0 4 0 2 1009.1 1008.3 6.4
15/07:30am 25.3 30.5 22.8 86 1.7 CALM 0 0 0 0 1008.7 1007.9 6.4
15/07:00am 24.8 29.8 22.5 87 1.5 CALM 0 0 0 0 1008.2 1007.4 6.4
15/06:30am 24.6 29.1 22.3 87 1.5 N 2 4 1 2 1007.8 1007.0 6.4
15/06:00am 24.3 27.9 22.0 87 1.5 W 6 9 3 5 1007.2 1006.4 6.4
15/05:30am 24.3 27.7 22.0 87 1.5 WSW 7 9 4 5 1007.2 1006.4 6.4
15/05:00am 24.2 28.1 21.9 87 1.5 NNE 4 6 2 3 1007.3 1006.5 6.4
15/04:30am 24.2 28.0 21.7 86 1.7 WNW 4 4 2 2 1007.2 1006.4 6.4
15/04:00am 24.1 28.0 21.8 87 1.5 N 4 6 2 3 - - 6.4
15/03:30am 23.9 28.3 21.4 86 1.7 CALM 0 0 0 0 - - 6.4
15/03:00am 23.7 28.0 21.2 86 1.6 CALM 0 0 0 0 - - 6.4
15/02:30am 23.8 26.6 20.9 84 1.9 NNW 7 11 4 6 - - 6.4
15/02:00am 23.4 25.7 20.7 85 1.8 N 9 13 5 7 1008.3 1007.5 6.4
15/01:30am 23.3 26.4 21.4 89 1.3 ESE 7 11 4 6 1008.2 1007.4 6.4
15/01:00am 23.0 25.9 20.7 87 1.5 SW 6 13 3 7 1007.8 1007.0 6.4
15/12:30am 23.3 26.4 21.4 89 1.3 SW 7 13 4 7 1008.4 1007.6 6.2
15/12:00am 27.2 27.4 19.3 62 5.1 SE 17 35 9 19 1009.4 1008.6 0.6
 
Date/Time
CST
Temp
°C
App
Temp
°C
Dew
Point
°C
Rel
Hum
%
Delta-T
°C
Wind Press
QNH
hPa
Press
MSL
hPa
Rain since
9am
mm
Dir  Spd
km/h
Gust
km/h
Spd
kts
Gust
kts
14/11:30pm 28.9 33.6 24.0 75 3.4 SSW 6 7 3 4 1009.5 1008.8 0.6
14/11:00pm 28.9 34.1 24.2 76 3.3 W 4 9 2 5 1009.1 1008.3 0.6
14/10:30pm 28.8 33.4 24.1 76 3.3 WNW 7 13 4 7 1008.5 1007.7 0.6
14/10:00pm 28.9 33.3 23.8 74 3.5 WNW 7 13 4 7 1008.4 1007.6 0.6
14/09:30pm 29.1 33.5 23.8 73 3.7 WNW 7 11 4 6 1008.2 1007.4 0.6
14/09:00pm 29.4 33.3 23.6 71 4.0 WNW 9 15 5 8 1007.9 1007.1 0.6
14/08:30pm 29.5 33.1 23.7 71 4.0 NW 11 17 6 9 1007.3 1006.5 0.6
14/08:00pm 29.9 32.7 23.6 69 4.4 NW 15 20 8 11 1006.7 1005.9 0.6
14/07:30pm 30.3 34.1 24.0 69 4.4 WNW 11 20 6 11 1006.4 1005.6 0.6
14/07:00pm 30.7 34.0 23.9 67 4.7 NW 13 20 7 11 1006.0 1005.2 0.6
14/06:30pm 31.7 34.7 24.0 63 5.4 NW 15 26 8 14 1005.6 1004.8 0.6
14/06:00pm 32.6 35.2 23.3 58 6.5 NNW 15 24 8 13 1005.1 1004.3 0.6
14/05:30pm 35.0 37.4 22.3 47 8.8 NNW 13 22 7 12 1004.5 1003.7 0.6
14/05:00pm 36.5 39.0 19.0 35 11.6 NE 4 6 2 3 1004.2 1003.4 0.6
14/04:30pm 34.3 37.6 20.7 45 9.2 NNE 4 6 2 3 1004.4 1003.6 0.6
14/04:08pm 33.3 32.3 20.5 47 8.6 E 26 70 14 38 1004.6 1003.8 0.6
14/04:02pm 32.8 32.4 18.9 43 9.1 ENE 19 70 10 38 1004.6 1003.8 0.0
14/04:00pm 38.0 38.5 18.4 31 12.9 ENE 13 65 7 35 1004.5 1003.7 0.0
14/03:30pm 38.0 38.8 17.4 29 13.5 E 9 19 5 10 1004.6 1003.8 0.0
14/03:00pm 37.5 38.2 18.0 31 12.8 NE 11 19 6 10 1005.0 1004.2 0.0
14/02:30pm 37.5 37.5 18.0 31 12.8 NE 15 22 8 12 1005.3 1004.5 0.0
14/02:00pm 37.4 37.7 17.9 31 12.8 ENE 13 22 7 12 1005.8 1005.0 0.0
14/01:30pm 35.9 37.2 18.5 36 11.5 NE 9 15 5 8 1006.6 1005.8 0.0
14/01:00pm 36.2 36.3 18.3 34 11.8 ENE 15 26 8 14 1007.2 1006.4 0.0
14/12:30pm 35.5 37.8 19.4 38 10.7 NE 6 15 3 8 1008.1 1007.3 0.0
14/12:00pm 34.5 36.7 19.3 40 10.1 ESE 6 11 3 6 1008.8 1008.0 0.0
14/11:30am 35.0 37.3 19.8 41 10.2 ENE 7 13 4 7 1009.2 1008.4 0.0
14/11:00am 33.8 36.7 20.6 46 8.9 NW 6 9 3 5 1009.6 1008.9 0.0
14/10:30am 33.0 36.6 21.2 50 8.0 NNE 4 13 2 7 1010.0 1009.3 0.0
14/10:00am 31.8 34.9 21.0 52 7.3 N 6 13 3 7 - - 0.0
14/09:30am 31.1 35.0 21.9 58 6.2 WSW 4 6 2 3 - - 0.0

Latest Capital City Observations: Canberra | Sydney | Melbourne | Brisbane | Adelaide | Perth | Hobart | Darwin

Other Formats:

Comma delimited format used in spreadsheet applications
http://www.bom.gov.au/fwo/IDD60901/IDD60901.94125.axf

JavaScript Object Notation format (JSON) in row-major order
http://www.bom.gov.au/fwo/IDD60901/IDD60901.94125.json